Archival Weather

Republic

Farmingdale, New York (KFRG)

Report from: Sunday, February 18, 2024 4:53 PM EST
Current time: Friday, June 14, 2024 8:11 AM EDT

Current weather – Weather history – Daily summaries
Weather forecast

Temperature4.4°C (39.9°F)
Wind chill-0.8°C (30.5°F)
Dew point-9.4°C (15.1°F)
Winds 17 kts (8.7 m/s, 19.6 mph) West (260°)
Wind gusts 27 kts (13.9 m/s, 31.1 mph)
Peak wind 29 kts (14.9 m/s, 33.4 mph) West (260°) at 20:55
Visibility10 mi. (16.1 km)
Clouds Sky clear
Altimeter29.79 in.Hg (1009 mB)
Relative humidity36 %
Density altitude-1,078 ft. (-329 m)
Sea-level pressure100.9 kPa (1009 mB, 29.79 in.Hg)
Remarks Automated weather observing station without precipitation discriminator
Flight conditions Visual Meteorological Conditions
Raw dataKFRG 182153Z 26017G27KT 10SM CLR 04/M09 A2979 RMK AO1 PK WND 26029/2055 SLP088 T00441094
An error has occurred. This application may no longer respond until reloaded. Reload 🗙